Time;durP1;ratioP1;P1;durP2;ratioP2;P2;SDS_P1;SDS_P2;PMS_P1;PMS_P2;Temp;Humidity;BMP_temperature;BMP_pressure;BME280_temperature;BME280_humidity;BME280_pressure;Samples;Min_cycle;Max_cycle;Signal;HPM_P1;HPM_P2
2023/12/22 00:01:15;;;;;;;575.58;529.80;;;5.30;99.90;;;;;;6289554;22;20011;-84
2023/12/22 00:03:42;;;;;;;534.85;493.83;;;5.40;99.90;;;;;;6247594;22;20019;-84
2023/12/22 00:06:08;;;;;;;741.63;679.20;;;5.50;99.90;;;;;;6271660;22;20049;-84
2023/12/22 00:08:33;;;;;;;599.58;548.95;;;5.60;99.90;;;;;;6246264;22;20114;-84
2023/12/22 00:10:59;;;;;;;649.35;592.95;;;5.70;99.90;;;;;;6247389;22;20402;-84
2023/12/22 00:13:25;;;;;;;354.88;326.65;;;5.70;99.90;;;;;;6246760;22;20443;-84
2023/12/22 00:15:51;;;;;;;281.50;259.50;;;5.70;99.90;;;;;;6273112;22;20444;-83
2023/12/22 00:18:16;;;;;;;827.17;666.88;;;5.90;99.90;;;;;;6247768;22;20415;-84
2023/12/22 00:20:42;;;;;;;556.85;507.73;;;5.70;99.90;;;;;;6244638;22;20015;-85
2023/12/22 00:23:08;;;;;;;464.15;430.13;;;5.60;99.90;;;;;;6247731;22;20340;-83
2023/12/22 00:25:33;;;;;;;347.10;323.67;;;5.40;99.90;;;;;;6246584;22;20297;-84
2023/12/22 00:27:59;;;;;;;669.50;613.45;;;5.30;99.90;;;;;;6246721;22;20019;-84
2023/12/22 00:30:25;;;;;;;509.10;472.00;;;5.10;99.90;;;;;;6247336;22;20011;-83
2023/12/22 00:32:51;;;;;;;350.20;326.50;;;5.10;99.90;;;;;;6272792;22;20316;-84
2023/12/22 00:35:16;;;;;;;602.03;550.78;;;5.00;99.90;;;;;;6245602;22;20025;-85
2023/12/22 00:37:42;;;;;;;789.65;719.75;;;5.00;99.90;;;;;;6248014;22;20019;-83
2023/12/22 00:40:09;;;;;;;541.63;499.80;;;5.10;99.90;;;;;;6272497;22;20047;-83
2023/12/22 00:42:35;;;;;;;477.67;442.58;;;5.10;99.90;;;;;;6272533;22;20380;-84
2023/12/22 00:45:01;;;;;;;502.90;462.98;;;5.20;99.90;;;;;;6272568;22;20016;-84
2023/12/22 00:47:27;;;;;;;518.90;472.40;;;5.20;99.90;;;;;;6247263;22;20019;-84
2023/12/22 00:49:53;;;;;;;292.30;269.02;;;5.10;99.90;;;;;;6271081;22;20019;-83
2023/12/22 00:52:19;;;;;;;214.20;198.43;;;5.10;99.90;;;;;;6272771;22;20011;-84
2023/12/22 00:54:45;;;;;;;177.32;164.30;;;5.10;99.90;;;;;;6272545;22;20386;-83
2023/12/22 00:57:11;;;;;;;167.93;156.90;;;5.10;99.90;;;;;;6272054;22;20012;-84
2023/12/22 00:59:37;;;;;;;235.88;219.82;;;5.10;99.90;;;;;;6272601;22;20077;-83
2023/12/22 01:02:02;;;;;;;349.13;324.17;;;5.10;99.90;;;;;;6266666;22;20019;-84
2023/12/22 01:04:28;;;;;;;384.30;350.38;;;5.10;99.90;;;;;;6271771;22;20023;-84
2023/12/22 01:06:54;;;;;;;307.25;285.92;;;5.20;99.90;;;;;;6298335;22;20342;-84
2023/12/22 01:09:20;;;;;;;468.38;429.17;;;5.50;99.90;;;;;;6272557;22;20007;-84
2023/12/22 01:11:46;;;;;;;170.60;158.20;;;5.20;99.90;;;;;;6272108;22;20101;-84
2023/12/22 01:14:13;;;;;;;340.83;314.08;;;5.20;99.90;;;;;;6298821;22;20016;-84
2023/12/22 01:16:39;;;;;;;284.15;260.50;;;5.20;99.90;;;;;;6272434;22;20450;-83
2023/12/22 01:19:05;;;;;;;469.05;431.50;;;5.20;99.90;;;;;;6299074;22;20015;-84
2023/12/22 01:21:31;;;;;;;257.98;238.55;;;5.30;99.90;;;;;;6297017;22;20022;-84
2023/12/22 01:23:58;;;;;;;381.38;351.73;;;5.30;99.90;;;;;;6298619;22;20316;-85
2023/12/22 01:26:24;;;;;;;324.00;301.35;;;5.30;99.90;;;;;;6297998;22;20100;-84
2023/12/22 01:28:50;;;;;;;428.63;390.25;;;5.20;99.90;;;;;;6298801;22;20382;-84
2023/12/22 01:31:16;;;;;;;459.10;425.85;;;5.30;99.90;;;;;;6271919;22;20104;-84
2023/12/22 01:33:42;;;;;;;409.00;380.13;;;5.40;99.90;;;;;;6297902;22;20015;-84
2023/12/22 01:36:08;;;;;;;317.33;295.70;;;5.40;99.90;;;;;;6271765;22;20557;-84
2023/12/22 01:38:33;;;;;;;527.15;484.85;;;5.40;99.90;;;;;;6297842;22;20481;-83
2023/12/22 01:40:59;;;;;;;498.85;460.02;;;5.40;99.90;;;;;;6300543;22;20110;-84
2023/12/22 01:43:25;;;;;;;502.85;464.83;;;5.40;99.90;;;;;;6274350;22;20366;-84
2023/12/22 01:45:55;;;;;;;544.40;495.17;;;5.40;99.90;;;;;;6298992;22;20019;-84
2023/12/22 01:48:23;;;;;;;511.00;472.23;;;5.40;99.90;;;;;;6300182;22;20011;-84
2023/12/22 01:50:52;;;;;;;627.38;576.40;;;5.50;99.90;;;;;;6298769;22;20019;-84
2023/12/22 01:53:20;;;;;;;452.20;418.35;;;5.50;99.90;;;;;;6299557;22;20118;-84
2023/12/22 01:55:48;;;;;;;449.08;417.08;;;5.50;99.90;;;;;;6299899;22;20348;-84
2023/12/22 01:58:14;;;;;;;515.80;474.05;;;5.50;99.90;;;;;;6274801;22;20055;-84
2023/12/22 02:00:40;;;;;;;355.95;331.58;;;5.40;99.90;;;;;;6272768;22;20026;-84
2023/12/22 02:03:06;;;;;;;291.83;272.20;;;5.40;99.90;;;;;;6275241;22;20019;-83
2023/12/22 02:05:32;;;;;;;480.42;442.40;;;5.20;99.90;;;;;;6272633;22;20160;-84
2023/12/22 02:07:58;;;;;;;522.95;481.98;;;5.20;99.90;;;;;;6299888;22;20015;-84
2023/12/22 02:10:24;;;;;;;388.13;359.50;;;5.20;99.90;;;;;;6300355;22;20011;-84
2023/12/22 02:12:50;;;;;;;379.58;352.95;;;5.10;99.90;;;;;;6300151;22;20102;-83
2023/12/22 02:15:16;;;;;;;500.88;461.90;;;5.20;99.90;;;;;;6273451;22;20019;-83
2023/12/22 02:17:54;;;;;;;610.55;558.03;;;5.30;99.90;;;;;;6300213;22;20020;-83
2023/12/22 02:20:21;;;;;;;739.08;664.08;;;5.40;99.90;;;;;;6298301;22;20011;-84
2023/12/22 02:22:52;;;;;;;600.33;551.47;;;5.40;99.90;;;;;;6274364;22;20043;-83
2023/12/22 02:25:18;;;;;;;547.00;496.10;;;5.40;99.90;;;;;;6274276;22;20015;-83
2023/12/22 02:27:47;;;;;;;544.22;503.50;;;5.80;99.90;;;;;;6273600;22;20521;-84
2023/12/22 02:30:29;;;;;;;539.92;500.33;;;5.30;99.90;;;;;;6274325;22;20011;-84
2023/12/22 02:32:58;;;;;;;435.48;405.35;;;5.20;99.90;;;;;;6300580;22;20050;-84
2023/12/22 02:35:27;;;;;;;504.23;469.08;;;5.10;99.90;;;;;;6297386;22;20026;-83
2023/12/22 02:37:57;;;;;;;503.50;468.42;;;5.10;99.90;;;;;;6300333;22;20022;-83
2023/12/22 02:40:24;;;;;;;776.63;702.15;;;5.40;99.90;;;;;;6299444;22;20090;-84
2023/12/22 02:42:52;;;;;;;610.20;561.70;;;5.00;99.90;;;;;;6299103;22;20015;-85
2023/12/22 02:45:18;;;;;;;539.50;501.40;;;4.90;99.90;;;;;;6272830;22;20018;-84
2023/12/22 02:47:45;;;;;;;816.83;727.92;;;4.90;99.90;;;;;;6299918;22;20015;-84
2023/12/22 02:50:13;;;;;;;662.47;610.63;;;5.00;99.90;;;;;;6296929;22;20019;-83
2023/12/22 02:52:38;;;;;;;724.70;664.55;;;5.00;99.90;;;;;;6274077;22;20299;-84
2023/12/22 02:55:05;;;;;;;669.65;617.72;;;5.00;99.90;;;;;;6299376;22;20661;-83
2023/12/22 02:57:31;;;;;;;594.33;550.38;;;5.10;99.90;;;;;;6273242;22;20466;-84
2023/12/22 02:59:57;;;;;;;676.75;622.15;;;5.10;99.90;;;;;;6299698;22;20023;-84
2023/12/22 03:02:23;;;;;;;547.75;507.17;;;5.20;99.90;;;;;;6272175;22;20180;-83
2023/12/22 03:04:48;;;;;;;583.88;540.47;;;5.40;99.90;;;;;;6298287;22;20435;-84
2023/12/22 03:07:14;;;;;;;583.75;538.28;;;5.50;99.90;;;;;;6273383;22;20094;-84
2023/12/22 03:09:41;;;;;;;562.80;519.72;;;5.40;99.90;;;;;;6272443;22;20016;-83
2023/12/22 03:12:08;;;;;;;583.53;537.42;;;5.30;99.90;;;;;;6299989;22;20018;-84
2023/12/22 03:14:34;;;;;;;368.80;344.38;;;5.10;99.90;;;;;;6272891;22;20030;-83
2023/12/22 03:17:01;;;;;;;369.42;344.73;;;5.00;99.90;;;;;;6298893;22;20015;-84
2023/12/22 03:19:27;;;;;;;361.45;336.40;;;4.90;99.90;;;;;;6298424;22;20015;-83
2023/12/22 03:21:53;;;;;;;400.92;373.75;;;4.80;99.90;;;;;;6298771;22;20019;-83
2023/12/22 03:24:19;;;;;;;459.23;427.75;;;4.60;99.90;;;;;;6298090;22;20011;-84
2023/12/22 03:26:45;;;;;;;682.90;619.63;;;4.50;99.90;;;;;;6273153;22;20347;-83
2023/12/22 03:29:11;;;;;;;448.60;418.05;;;4.50;99.90;;;;;;6273648;22;20015;-83
2023/12/22 03:31:37;;;;;;;495.02;461.20;;;4.60;99.90;;;;;;6271660;22;20011;-86
2023/12/22 03:34:03;;;;;;;567.00;525.25;;;4.50;99.90;;;;;;6299485;22;20017;-83
2023/12/22 03:36:28;;;;;;;754.53;692.88;;;4.50;99.90;;;;;;6271642;22;20019;-84
2023/12/22 03:38:54;;;;;;;708.17;652.83;;;4.50;99.90;;;;;;6272840;22;20090;-83
2023/12/22 03:41:20;;;;;;;643.78;594.80;;;5.00;99.90;;;;;;6298562;22;20027;-83
2023/12/22 03:43:46;;;;;;;591.88;547.20;;;4.70;99.90;;;;;;6273124;22;20034;-83
2023/12/22 03:46:11;;;;;;;676.30;622.17;;;4.80;99.90;;;;;;6271916;22;20098;-84
2023/12/22 03:48:37;;;;;;;710.92;651.13;;;5.00;99.90;;;;;;6299109;22;20015;-84
2023/12/22 03:51:03;;;;;;;705.15;638.22;;;5.10;99.90;;;;;;6272085;22;20428;-83
2023/12/22 03:53:29;;;;;;;496.20;458.50;;;5.10;99.90;;;;;;6271955;22;20019;-84
2023/12/22 03:55:55;;;;;;;489.70;453.63;;;5.10;99.90;;;;;;6298659;22;20030;-83
2023/12/22 03:58:21;;;;;;;374.85;349.58;;;5.20;99.90;;;;;;6273032;22;20039;-84
2023/12/22 04:00:48;;;;;;;385.52;359.98;;;5.40;99.90;;;;;;6271901;22;20460;-83
2023/12/22 04:03:14;;;;;;;635.42;583.05;;;5.40;99.90;;;;;;6298816;22;20069;-83
2023/12/22 04:05:39;;;;;;;499.50;460.27;;;5.40;99.90;;;;;;6296851;22;20102;-84
2023/12/22 04:08:06;;;;;;;718.72;643.13;;;5.50;99.90;;;;;;6298936;22;20073;-85
2023/12/22 04:10:32;;;;;;;636.10;568.28;;;5.50;99.90;;;;;;6272477;22;20089;-84
2023/12/22 04:12:57;;;;;;;416.15;385.90;;;5.60;99.90;;;;;;6298163;22;20435;-84
2023/12/22 04:15:23;;;;;;;395.77;367.42;;;5.60;99.90;;;;;;6272923;22;20458;-84
2023/12/22 04:17:49;;;;;;;370.77;345.20;;;5.60;99.90;;;;;;6272879;22;20446;-84
2023/12/22 04:20:15;;;;;;;387.67;359.55;;;5.50;99.90;;;;;;6270653;22;20022;-83
2023/12/22 04:22:41;;;;;;;326.38;304.90;;;5.50;99.90;;;;;;6272783;22;20057;-83
2023/12/22 04:25:07;;;;;;;389.20;362.08;;;5.70;99.90;;;;;;6298532;22;20026;-84
2023/12/22 04:27:34;;;;;;;483.10;447.13;;;5.40;99.90;;;;;;6297665;22;20058;-84
2023/12/22 04:30:00;;;;;;;478.05;442.60;;;5.80;99.90;;;;;;6273260;22;20026;-84
2023/12/22 04:32:25;;;;;;;601.53;551.92;;;5.40;99.90;;;;;;6297676;22;20028;-84
2023/12/22 04:34:51;;;;;;;248.55;231.77;;;5.40;99.90;;;;;;6297182;22;20015;-83
2023/12/22 04:37:17;;;;;;;276.70;255.68;;;5.50;99.90;;;;;;6272343;22;20429;-84
2023/12/22 04:39:42;;;;;;;275.65;252.18;;;5.60;99.90;;;;;;6272391;22;20015;-84
2023/12/22 04:42:08;;;;;;;84.38;77.20;;;5.70;99.90;;;;;;6272359;22;20011;-84
2023/12/22 04:44:34;;;;;;;319.88;294.52;;;5.80;99.90;;;;;;6298717;22;20072;-84
2023/12/22 04:47:00;;;;;;;164.98;152.70;;;5.90;99.90;;;;;;6273438;22;20078;-84
2023/12/22 04:49:26;;;;;;;242.68;221.05;;;6.00;99.90;;;;;;6297351;22;20344;-84
2023/12/22 04:51:51;;;;;;;118.50;108.85;;;6.00;99.90;;;;;;6298282;22;20451;-83
2023/12/22 04:54:17;;;;;;;272.70;250.00;;;6.00;99.90;;;;;;6298949;22;20050;-84
2023/12/22 04:56:43;;;;;;;275.88;253.88;;;6.10;99.90;;;;;;6297223;22;20091;-85
2023/12/22 04:59:09;;;;;;;73.30;66.65;;;6.10;99.90;;;;;;6298948;22;20098;-83
2023/12/22 05:01:35;;;;;;;92.30;84.53;;;6.10;99.90;;;;;;6272295;22;20015;-84
2023/12/22 05:04:01;;;;;;;69.88;62.08;;;6.10;99.90;;;;;;6298512;22;20023;-83
2023/12/22 05:06:29;;;;;;;87.30;80.68;;;6.00;99.90;;;;;;6271271;22;20123;-83
2023/12/22 05:08:56;;;;;;;193.43;176.63;;;6.00;99.90;;;;;;6298039;22;20011;-83
2023/12/22 05:11:22;;;;;;;227.15;207.50;;;6.10;99.90;;;;;;6272959;22;20025;-84
2023/12/22 05:13:48;;;;;;;102.85;94.35;;;6.10;99.90;;;;;;6300568;22;20109;-84
2023/12/22 05:16:14;;;;;;;118.28;109.68;;;6.10;99.90;;;;;;6274111;22;20332;-84
2023/12/22 05:18:40;;;;;;;118.07;108.57;;;6.10;99.90;;;;;;6275350;22;20019;-84
2023/12/22 05:21:05;;;;;;;146.55;135.00;;;6.20;99.90;;;;;;6299546;22;20019;-84
2023/12/22 05:23:31;;;;;;;95.50;87.70;;;6.20;99.90;;;;;;6273824;22;20007;-84
2023/12/22 05:25:57;;;;;;;251.48;232.85;;;6.20;99.90;;;;;;6274440;22;20105;-87
2023/12/22 05:28:22;;;;;;;211.98;196.10;;;6.20;99.90;;;;;;6274987;22;20098;-85
2023/12/22 05:30:48;;;;;;;139.15;128.57;;;6.20;99.90;;;;;;6298870;22;20061;-84
2023/12/22 05:33:14;;;;;;;266.58;245.20;;;6.20;99.90;;;;;;6299781;22;20347;-84
2023/12/22 05:35:40;;;;;;;165.50;152.85;;;6.30;99.90;;;;;;6299196;22;20073;-84
2023/12/22 05:38:05;;;;;;;116.82;107.35;;;6.30;99.90;;;;;;6298810;22;20011;-84
2023/12/22 05:40:32;;;;;;;200.98;185.68;;;6.20;99.90;;;;;;6273699;22;20145;-84
2023/12/22 05:42:57;;;;;;;226.43;209.90;;;6.30;99.90;;;;;;6274338;22;20369;-85
2023/12/22 05:45:24;;;;;;;149.43;138.48;;;6.30;99.90;;;;;;6272755;22;20089;-84
2023/12/22 05:47:50;;;;;;;242.98;224.57;;;6.20;99.90;;;;;;6274451;22;20023;-84
2023/12/22 05:50:16;;;;;;;379.38;346.40;;;6.30;99.90;;;;;;6273207;22;20112;-85
2023/12/22 05:52:44;;;;;;;147.75;136.45;;;6.30;99.90;;;;;;6273380;22;20022;-84
2023/12/22 05:55:10;;;;;;;175.30;161.40;;;6.30;99.90;;;;;;6273935;22;20090;-85
2023/12/22 05:57:36;;;;;;;201.73;186.90;;;6.30;99.90;;;;;;6274194;22;20474;-85
2023/12/22 06:00:04;;;;;;;149.50;138.23;;;6.30;99.90;;;;;;6299274;22;20285;-84
2023/12/22 06:02:32;;;;;;;249.40;230.70;;;6.30;99.90;;;;;;6273750;22;20031;-85
2023/12/22 06:04:58;;;;;;;246.98;229.05;;;6.30;99.90;;;;;;6299417;22;20073;-85
2023/12/22 06:07:24;;;;;;;176.40;163.48;;;6.20;99.90;;;;;;6272825;22;20019;-85
2023/12/22 06:09:49;;;;;;;201.52;184.23;;;6.20;99.90;;;;;;6299143;22;20438;-85
2023/12/22 06:12:15;;;;;;;127.68;117.85;;;6.20;99.90;;;;;;6272654;22;20081;-84
2023/12/22 06:14:41;;;;;;;164.55;152.23;;;6.30;99.90;;;;;;6299068;22;20022;-84
2023/12/22 06:17:06;;;;;;;133.55;123.03;;;6.30;99.90;;;;;;6273688;22;20019;-84
2023/12/22 06:19:32;;;;;;;134.63;124.60;;;6.30;99.90;;;;;;6271796;22;20867;-85
2023/12/22 06:21:59;;;;;;;171.82;159.38;;;6.30;99.90;;;;;;6272675;22;20019;-84
2023/12/22 06:24:26;;;;;;;247.05;228.55;;;6.30;99.90;;;;;;6272861;22;20015;-84
2023/12/22 06:26:52;;;;;;;273.42;253.63;;;6.40;99.90;;;;;;6272533;22;20022;-84
2023/12/22 06:29:17;;;;;;;220.27;203.75;;;6.40;99.90;;;;;;6273398;22;20011;-85
2023/12/22 06:31:43;;;;;;;181.10;168.02;;;6.40;99.90;;;;;;6298741;22;20021;-84
2023/12/22 06:34:09;;;;;;;258.98;240.57;;;6.30;99.90;;;;;;6273450;22;20728;-84
2023/12/22 06:36:35;;;;;;;325.40;300.40;;;6.30;99.90;;;;;;6298229;22;20015;-85
2023/12/22 06:39:00;;;;;;;240.40;223.07;;;6.30;99.90;;;;;;6274478;22;20073;-84
2023/12/22 06:41:29;;;;;;;303.80;282.13;;;6.30;99.90;;;;;;6297943;22;20451;-82
2023/12/22 06:43:56;;;;;;;653.40;587.38;;;6.30;99.90;;;;;;6299684;22;20466;-82
2023/12/22 06:46:23;;;;;;;386.75;355.23;;;6.10;99.90;;;;;;6273724;22;20053;-83
2023/12/22 06:48:49;;;;;;;478.92;444.35;;;5.70;99.90;;;;;;6298700;22;20022;-83
2023/12/22 06:51:24;;;;;;;529.05;488.60;;;5.40;99.90;;;;;;6272664;22;20015;-82
2023/12/22 06:53:50;;;;;;;360.85;337.60;;;5.30;99.90;;;;;;6273263;22;20007;-83
2023/12/22 06:56:19;;;;;;;389.45;363.10;;;5.20;99.90;;;;;;6272496;22;20030;-84
2023/12/22 06:58:47;;;;;;;414.27;386.80;;;5.10;99.90;;;;;;6299388;22;20012;-84
2023/12/22 07:01:19;;;;;;;457.77;425.45;;;5.10;99.90;;;;;;6272313;22;20370;-83
2023/12/22 07:03:46;;;;;;;375.77;352.02;;;5.00;99.90;;;;;;6272457;22;20022;-83
2023/12/22 07:06:11;;;;;;;411.17;382.20;;;5.00;99.90;;;;;;6271968;22;20025;-83
2023/12/22 07:08:38;;;;;;;503.02;466.67;;;5.00;99.90;;;;;;6271877;22;20106;-82
2023/12/22 07:11:04;;;;;;;479.58;446.80;;;5.10;99.90;;;;;;6299584;22;20011;-82
2023/12/22 07:13:30;;;;;;;456.17;422.90;;;5.30;99.90;;;;;;6298889;22;20030;-83
2023/12/22 07:15:55;;;;;;;457.80;426.90;;;5.20;99.90;;;;;;6298429;22;20011;-83
2023/12/22 07:18:21;;;;;;;488.45;452.27;;;5.30;99.90;;;;;;6299778;22;20015;-83
2023/12/22 07:20:47;;;;;;;356.30;333.23;;;5.30;99.90;;;;;;6272205;22;20011;-83
2023/12/22 07:23:12;;;;;;;324.15;303.33;;;5.50;99.90;;;;;;6273302;22;20015;-83
2023/12/22 07:25:38;;;;;;;445.40;413.08;;;5.60;99.90;;;;;;6299421;22;20081;-83
2023/12/22 07:28:05;;;;;;;341.38;318.80;;;5.60;99.90;;;;;;6274215;22;20061;-84
2023/12/22 07:30:30;;;;;;;543.85;502.52;;;5.70;99.90;;;;;;6297921;22;20026;-83
2023/12/22 07:32:56;;;;;;;498.58;462.52;;;5.60;99.90;;;;;;6273499;22;20343;-83
2023/12/22 07:35:22;;;;;;;648.03;596.88;;;5.50;99.90;;;;;;6297488;22;20019;-84
2023/12/22 07:37:48;;;;;;;542.00;503.17;;;5.40;99.90;;;;;;6298500;22;20012;-83
2023/12/22 07:40:14;;;;;;;652.15;601.15;;;5.40;99.90;;;;;;6298408;22;20019;-83
2023/12/22 07:42:40;;;;;;;619.60;572.88;;;5.20;99.90;;;;;;6299267;22;20332;-83
2023/12/22 07:45:06;;;;;;;615.15;569.25;;;5.20;99.90;;;;;;6297786;22;20090;-83
2023/12/22 07:47:33;;;;;;;578.92;536.95;;;5.10;99.90;;;;;;6298727;22;20015;-84
2023/12/22 07:49:58;;;;;;;608.97;564.20;;;5.10;99.90;;;;;;6297852;22;20019;-84
2023/12/22 07:52:24;;;;;;;611.67;565.28;;;5.10;99.90;;;;;;6272331;22;20030;-83
2023/12/22 07:54:51;;;;;;;641.13;593.00;;;5.10;99.90;;;;;;6298689;22;20019;-83
2023/12/22 07:57:16;;;;;;;665.90;615.17;;;5.10;99.90;;;;;;6272880;22;20051;-83
2023/12/22 07:59:42;;;;;;;671.28;620.35;;;5.00;99.90;;;;;;6297208;22;20458;-84
2023/12/22 08:02:08;;;;;;;632.08;584.33;;;5.10;99.90;;;;;;6303400;22;20032;-83
2023/12/22 08:04:34;;;;;;;631.60;584.45;;;5.00;99.90;;;;;;6329390;22;20090;-83
2023/12/22 08:06:59;;;;;;;640.55;592.95;;;5.00;99.90;;;;;;6302839;22;20025;-83
2023/12/22 08:09:25;;;;;;;704.88;649.47;;;5.10;99.90;;;;;;6277675;22;20055;-83
2023/12/22 08:11:52;;;;;;;651.70;602.97;;;5.10;99.90;;;;;;6329173;22;20065;-83
2023/12/22 08:14:19;;;;;;;655.03;600.20;;;5.10;99.90;;;;;;6303234;22;20391;-83
2023/12/22 08:16:44;;;;;;;588.17;543.70;;;5.10;99.90;;;;;;6303825;22;20025;-84
2023/12/22 08:19:10;;;;;;;631.17;583.33;;;5.20;99.90;;;;;;6302851;22;20097;-83
2023/12/22 08:21:36;;;;;;;599.40;554.75;;;5.10;99.90;;;;;;6302031;22;20015;-83
2023/12/22 08:24:02;;;;;;;649.22;600.40;;;5.20;99.90;;;;;;6304491;22;20025;-84
2023/12/22 08:26:28;;;;;;;696.10;641.55;;;5.20;99.90;;;;;;6301575;22;20019;-84
2023/12/22 08:28:53;;;;;;;603.60;558.53;;;5.20;99.90;;;;;;6303897;22;20053;-83
2023/12/22 08:31:19;;;;;;;716.20;657.60;;;5.40;99.90;;;;;;6303525;22;20324;-83
2023/12/22 08:33:45;;;;;;;595.38;551.42;;;5.50;99.90;;;;;;6301772;22;20011;-83
2023/12/22 08:36:11;;;;;;;621.63;575.40;;;5.50;99.90;;;;;;6302607;22;20023;-83
2023/12/22 08:38:40;;;;;;;572.45;531.10;;;5.60;99.90;;;;;;6303097;22;20015;-83
2023/12/22 08:41:07;;;;;;;657.22;605.58;;;5.60;99.90;;;;;;6277105;22;20018;-83
2023/12/22 08:43:34;;;;;;;479.88;445.95;;;5.70;99.90;;;;;;6303133;22;20015;-83
2023/12/22 08:46:00;;;;;;;586.80;543.08;;;5.70;99.90;;;;;;6329346;22;20015;-83
2023/12/22 08:48:25;;;;;;;609.05;562.65;;;5.80;99.90;;;;;;6302044;22;20014;-83
2023/12/22 08:50:51;;;;;;;662.55;611.10;;;5.90;99.90;;;;;;6302436;22;20435;-83
2023/12/22 08:53:17;;;;;;;623.33;576.28;;;5.90;99.90;;;;;;6277686;22;20108;-83
2023/12/22 08:55:42;;;;;;;650.05;601.00;;;5.90;99.90;;;;;;6276645;22;20029;-83
2023/12/22 08:58:08;;;;;;;670.08;619.30;;;6.00;99.90;;;;;;6303509;22;20018;-83
2023/12/22 09:00:34;;;;;;;677.15;625.47;;;6.00;99.90;;;;;;6303148;22;20050;-83
2023/12/22 09:02:59;;;;;;;735.95;677.85;;;5.90;99.90;;;;;;6276468;22;20449;-83
2023/12/22 09:05:25;;;;;;;735.63;679.08;;;6.00;99.90;;;;;;6302427;22;20019;-83
2023/12/22 09:07:51;;;;;;;679.33;627.97;;;6.00;99.90;;;;;;6303731;22;20076;-84
2023/12/22 09:10:17;;;;;;;717.67;661.25;;;6.00;99.90;;;;;;6300844;22;20015;-83
2023/12/22 09:12:42;;;;;;;724.63;667.95;;;6.00;99.90;;;;;;6277565;22;20101;-83
2023/12/22 09:15:08;;;;;;;772.90;710.63;;;6.00;99.90;;;;;;6276467;22;20014;-82
2023/12/22 09:17:34;;;;;;;727.60;671.33;;;6.10;99.90;;;;;;6303185;22;20067;-83
2023/12/22 09:20:00;;;;;;;757.40;696.55;;;6.00;99.90;;;;;;6302665;22;20019;-84
2023/12/22 09:22:26;;;;;;;776.60;713.38;;;6.00;99.90;;;;;;6301616;22;20022;-83
2023/12/22 09:24:51;;;;;;;697.63;644.42;;;6.10;99.90;;;;;;6303341;22;20021;-83
2023/12/22 09:27:17;;;;;;;700.22;645.88;;;6.10;99.90;;;;;;6302708;22;20029;-83
2023/12/22 09:29:43;;;;;;;729.90;672.60;;;6.10;99.90;;;;;;6302568;22;20018;-84
2023/12/22 09:32:09;;;;;;;728.22;672.35;;;6.10;99.90;;;;;;6303022;22;20021;-83
2023/12/22 09:34:34;;;;;;;669.30;618.03;;;6.10;99.90;;;;;;6302760;22;20022;-83
2023/12/22 09:37:00;;;;;;;756.88;695.55;;;6.10;99.90;;;;;;6276382;22;20019;-83
2023/12/22 09:39:28;;;;;;;720.28;662.38;;;6.10;99.90;;;;;;6302152;22;20098;-84
2023/12/22 09:41:54;;;;;;;723.63;665.22;;;6.20;99.90;;;;;;6303005;22;20106;-86
2023/12/22 09:44:21;;;;;;;639.67;591.72;;;6.20;99.90;;;;;;6301756;22;20054;-83
2023/12/22 09:46:49;;;;;;;680.00;626.20;;;6.20;99.90;;;;;;6302310;22;20057;-84
2023/12/22 09:49:18;;;;;;;674.03;621.38;;;6.30;99.90;;;;;;6303242;22;20391;-83
2023/12/22 09:51:45;;;;;;;792.63;723.17;;;6.50;99.90;;;;;;6275439;22;20562;-84
2023/12/22 09:54:11;;;;;;;726.50;667.75;;;6.30;99.90;;;;;;6303784;22;20094;-84
2023/12/22 09:56:42;;;;;;;630.67;583.53;;;6.40;99.90;;;;;;6302129;22;20019;-84
2023/12/22 09:59:13;;;;;;;702.63;646.08;;;6.40;99.90;;;;;;6277593;22;20015;-83
2023/12/22 10:01:44;;;;;;;770.60;702.83;;;6.50;99.90;;;;;;6273650;22;20053;-83
2023/12/22 10:04:10;;;;;;;775.03;710.25;;;6.50;99.90;;;;;;6299236;22;20019;-84
2023/12/22 10:06:36;;;;;;;653.78;603.88;;;6.60;99.90;;;;;;6298745;22;20156;-84
2023/12/22 10:09:05;;;;;;;710.92;653.72;;;6.60;99.90;;;;;;6300768;22;20434;-83
2023/12/22 10:11:32;;;;;;;621.90;573.53;;;6.60;99.90;;;;;;6272956;22;20011;-85
2023/12/22 10:14:00;;;;;;;623.60;576.42;;;6.70;99.90;;;;;;6300780;22;20031;-83
2023/12/22 10:16:26;;;;;;;578.70;536.60;;;6.70;99.90;;;;;;6299075;22;20038;-85
2023/12/22 10:18:53;;;;;;;553.75;514.42;;;6.70;99.90;;;;;;6274040;22;20578;-84
2023/12/22 10:21:18;;;;;;;646.05;595.97;;;6.70;99.90;;;;;;6298259;22;20019;-84
2023/12/22 10:23:44;;;;;;;627.15;579.88;;;6.70;99.90;;;;;;6274695;22;20014;-83
2023/12/22 10:26:12;;;;;;;561.05;519.97;;;6.80;99.90;;;;;;6273380;22;20019;-84
2023/12/22 10:28:37;;;;;;;524.55;486.45;;;6.80;99.90;;;;;;6274225;22;20015;-84
2023/12/22 10:31:07;;;;;;;582.03;540.13;;;6.80;99.90;;;;;;6274545;22;20541;-84
2023/12/22 10:33:33;;;;;;;507.98;472.23;;;6.80;99.90;;;;;;6272327;22;20098;-84
2023/12/22 10:35:59;;;;;;;575.00;533.13;;;6.90;99.90;;;;;;6273094;22;20011;-84
2023/12/22 10:38:27;;;;;;;560.65;520.10;;;6.90;99.90;;;;;;6298935;22;20459;-84
2023/12/22 10:40:53;;;;;;;582.97;539.55;;;6.90;99.90;;;;;;6273119;22;20011;-85
2023/12/22 10:43:19;;;;;;;568.03;526.08;;;7.00;99.90;;;;;;6273114;22;20339;-85
2023/12/22 10:45:45;;;;;;;630.90;582.42;;;7.00;99.90;;;;;;6298974;22;20105;-84
2023/12/22 10:48:10;;;;;;;574.72;532.13;;;7.00;99.90;;;;;;6272698;22;20027;-85
2023/12/22 10:50:36;;;;;;;558.40;518.55;;;7.00;99.90;;;;;;6271918;22;20026;-85
2023/12/22 10:53:06;;;;;;;642.67;593.75;;;7.00;99.90;;;;;;6299829;22;20011;-84
2023/12/22 10:55:31;;;;;;;630.47;582.53;;;7.00;99.90;;;;;;6271414;22;20030;-84
2023/12/22 10:58:03;;;;;;;585.88;542.72;;;7.00;99.90;;;;;;6274177;22;20019;-85
2023/12/22 11:00:29;;;;;;;600.03;556.20;;;7.00;99.90;;;;;;6275335;22;20019;-84
2023/12/22 11:03:02;;;;;;;656.72;605.63;;;7.00;99.90;;;;;;6279071;22;20018;-84
2023/12/22 11:05:28;;;;;;;625.85;579.08;;;7.00;99.90;;;;;;6301510;22;20091;-84
2023/12/22 11:07:56;;;;;;;622.78;577.17;;;7.00;99.90;;;;;;6277957;22;20015;-84
2023/12/22 11:10:23;;;;;;;651.80;603.38;;;7.00;99.90;;;;;;6302796;22;20046;-84
2023/12/22 11:12:50;;;;;;;640.85;592.88;;;7.00;99.90;;;;;;6278360;22;20015;-84
2023/12/22 11:15:18;;;;;;;677.28;626.60;;;7.00;99.90;;;;;;6303273;22;20396;-85
2023/12/22 11:17:44;;;;;;;637.53;589.30;;;7.00;99.90;;;;;;6304125;22;20435;-85
2023/12/22 11:20:12;;;;;;;755.95;693.50;;;7.00;99.90;;;;;;6303247;22;20011;-86
2023/12/22 11:22:39;;;;;;;737.05;680.28;;;7.10;99.90;;;;;;6277210;22;20023;-84
2023/12/22 11:25:08;;;;;;;694.55;640.15;;;7.10;99.90;;;;;;6278653;22;20021;-84
2023/12/22 11:27:36;;;;;;;636.78;588.65;;;7.10;99.90;;;;;;6277890;22;20011;-85
2023/12/22 11:30:04;;;;;;;676.65;624.05;;;7.10;99.90;;;;;;6278028;22;20076;-84
2023/12/22 11:32:30;;;;;;;622.97;576.83;;;7.10;99.90;;;;;;6277130;22;20022;-84
2023/12/22 11:34:58;;;;;;;688.97;636.20;;;7.20;99.90;;;;;;6303696;22;20389;-84
2023/12/22 11:37:24;;;;;;;657.00;607.58;;;7.20;99.90;;;;;;6277028;22;20095;-83
2023/12/22 11:39:51;;;;;;;648.22;600.05;;;7.10;99.90;;;;;;6303735;22;20011;-83
2023/12/22 11:42:19;;;;;;;713.75;659.42;;;7.20;99.90;;;;;;6303595;22;20019;-85
2023/12/22 11:44:45;;;;;;;678.22;626.45;;;7.20;99.90;;;;;;6277512;22;20015;-85
2023/12/22 11:47:13;;;;;;;694.03;640.35;;;7.20;99.90;;;;;;6278398;22;20025;-85
2023/12/22 11:49:39;;;;;;;661.72;611.45;;;7.20;99.90;;;;;;6302879;22;20072;-85
2023/12/22 11:52:15;;;;;;;710.45;655.42;;;7.30;99.90;;;;;;6303653;22;20015;-83
2023/12/22 11:54:53;;;;;;;721.92;662.88;;;7.30;99.90;;;;;;6303951;22;20011;-84
2023/12/22 11:57:31;;;;;;;637.70;589.97;;;7.30;99.90;;;;;;6276969;22;20018;-83
2023/12/22 12:00:01;;;;;;;692.67;637.83;;;7.30;99.90;;;;;;6303516;22;20046;-82
2023/12/22 12:02:27;;;;;;;660.72;610.42;;;7.30;99.90;;;;;;6303484;22;20276;-82
2023/12/22 12:04:53;;;;;;;673.58;620.35;;;7.30;99.90;;;;;;6276088;22;20050;-83
2023/12/22 12:07:44;;;;;;;697.85;643.83;;;7.30;99.90;;;;;;6278043;22;20052;-82
2023/12/22 12:10:12;;;;;;;656.45;605.58;;;7.30;99.90;;;;;;6303760;22;20109;-83
2023/12/22 12:12:38;;;;;;;583.00;540.28;;;7.30;99.90;;;;;;6302840;22;20019;-83
2023/12/22 12:15:18;;;;;;;577.20;532.65;;;7.30;99.90;;;;;;6304110;22;20052;-83